sensor_id;sensor_type;location;lat;lon;timestamp;pressure;altitude;pressure_sealevel;temperature;humidity
56241;BME280;42155;53.096;23.226;2024-02-26T00:01:54;99224.03;;;9.78;88.01
56241;BME280;42155;53.096;23.226;2024-02-26T00:03:54;99222.06;;;9.80;87.40
56241;BME280;42155;53.096;23.226;2024-02-26T00:05:55;99222.34;;;9.77;87.30
56241;BME280;42155;53.096;23.226;2024-02-26T00:07:55;99216.75;;;9.80;87.40
56241;BME280;42155;53.096;23.226;2024-02-26T00:09:55;99218.47;;;9.81;87.59
56241;BME280;42155;53.096;23.226;2024-02-26T00:11:56;99208.13;;;9.78;87.69
56241;BME280;42155;53.096;23.226;2024-02-26T00:13:56;99210.78;;;9.78;87.89
56241;BME280;42155;53.096;23.226;2024-02-26T00:15:56;99210.78;;;9.78;87.76
56241;BME280;42155;53.096;23.226;2024-02-26T00:17:57;99209.50;;;9.72;87.79
56241;BME280;42155;53.096;23.226;2024-02-26T00:19:57;99206.03;;;9.72;87.92
56241;BME280;42155;53.096;23.226;2024-02-26T00:21:57;99205.03;;;9.73;87.78
56241;BME280;42155;53.096;23.226;2024-02-26T00:23:58;99206.72;;;9.74;88.10
56241;BME280;42155;53.096;23.226;2024-02-26T00:25:58;99207.84;;;9.71;88.12
56241;BME280;42155;53.096;23.226;2024-02-26T00:27:58;99209.63;;;9.70;87.99
56241;BME280;42155;53.096;23.226;2024-02-26T00:29:59;99205.31;;;9.69;87.89
56241;BME280;42155;53.096;23.226;2024-02-26T00:31:59;99205.31;;;9.69;87.99
56241;BME280;42155;53.096;23.226;2024-02-26T00:34:00;99198.34;;;9.68;87.82
56241;BME280;42155;53.096;23.226;2024-02-26T00:36:00;99163.44;;;9.44;88.03
56241;BME280;42155;53.096;23.226;2024-02-26T00:38:00;99191.78;;;9.63;88.22
56241;BME280;42155;53.096;23.226;2024-02-26T00:40:01;99197.91;;;9.63;87.73
56241;BME280;42155;53.096;23.226;2024-02-26T00:42:01;99198.06;;;9.62;88.25
56241;BME280;42155;53.096;23.226;2024-02-26T00:44:01;99194.84;;;9.58;88.44
56241;BME280;42155;53.096;23.226;2024-02-26T00:46:02;99190.53;;;9.57;88.25
56241;BME280;42155;53.096;23.226;2024-02-26T00:48:02;99192.34;;;9.57;88.25
56241;BME280;42155;53.096;23.226;2024-02-26T00:50:03;99197.75;;;9.55;88.39
56241;BME280;42155;53.096;23.226;2024-02-26T00:52:03;99195.66;;;9.49;88.02
56241;BME280;42155;53.096;23.226;2024-02-26T00:54:04;99200.69;;;9.52;88.11
56241;BME280;42155;53.096;23.226;2024-02-26T00:56:04;99185.19;;;9.48;88.38
56241;BME280;42155;53.096;23.226;2024-02-26T00:58:04;99192.03;;;9.50;88.24
56241;BME280;42155;53.096;23.226;2024-02-26T01:00:05;99199.97;;;9.50;88.37
56241;BME280;42155;53.096;23.226;2024-02-26T01:02:06;99192.28;;;9.47;88.06
56241;BME280;42155;53.096;23.226;2024-02-26T01:04:06;99194.09;;;9.47;88.04
56241;BME280;42155;53.096;23.226;2024-02-26T01:06:06;99191.59;;;9.45;88.67
56241;BME280;42155;53.096;23.226;2024-02-26T01:08:07;99183.47;;;9.37;88.02
56241;BME280;42155;53.096;23.226;2024-02-26T01:10:07;99152.91;;;9.23;88.52
56241;BME280;42155;53.096;23.226;2024-02-26T01:12:08;99193.09;;;9.38;88.17
56241;BME280;42155;53.096;23.226;2024-02-26T01:14:08;99161.69;;;9.24;88.76
56241;BME280;42155;53.096;23.226;2024-02-26T01:16:08;99114.78;;;8.95;88.78
56241;BME280;42155;53.096;23.226;2024-02-26T01:18:09;99165.06;;;9.26;88.71
56241;BME280;42155;53.096;23.226;2024-02-26T01:20:10;99148.16;;;9.17;88.63
56241;BME280;42155;53.096;23.226;2024-02-26T01:22:10;99171.75;;;9.30;88.17
56241;BME280;42155;53.096;23.226;2024-02-26T01:24:10;99170.47;;;9.24;88.31
56241;BME280;42155;53.096;23.226;2024-02-26T01:26:11;99177.31;;;9.27;88.55
56241;BME280;42155;53.096;23.226;2024-02-26T01:28:11;99167.97;;;9.23;88.63
56241;BME280;42155;53.096;23.226;2024-02-26T01:30:12;99165.19;;;9.24;88.71
56241;BME280;42155;53.096;23.226;2024-02-26T01:32:12;99170.75;;;9.21;88.47
56241;BME280;42155;53.096;23.226;2024-02-26T01:34:12;99162.25;;;9.17;88.79
56241;BME280;42155;53.096;23.226;2024-02-26T01:36:13;99172.69;;;9.19;88.34
56241;BME280;42155;53.096;23.226;2024-02-26T01:38:13;99158.72;;;9.07;88.72
56241;BME280;42155;53.096;23.226;2024-02-26T01:40:13;99168.50;;;9.16;88.52
56241;BME280;42155;53.096;23.226;2024-02-26T01:42:14;99165.97;;;9.15;88.63
56241;BME280;42155;53.096;23.226;2024-02-26T01:44:14;99169.50;;;9.15;88.80
56241;BME280;42155;53.096;23.226;2024-02-26T01:46:16;99173.22;;;9.13;88.79
56241;BME280;42155;53.096;23.226;2024-02-26T01:48:17;99173.38;;;9.11;88.92
56241;BME280;42155;53.096;23.226;2024-02-26T01:50:19;99179.50;;;9.12;88.95
56241;BME280;42155;53.096;23.226;2024-02-26T01:52:20;99173.63;;;9.08;88.94
56241;BME280;42155;53.096;23.226;2024-02-26T01:54:21;99168.59;;;9.05;89.03
56241;BME280;42155;53.096;23.226;2024-02-26T01:56:22;99174.47;;;9.09;88.84
56241;BME280;42155;53.096;23.226;2024-02-26T01:58:22;99178.91;;;9.08;89.06
56241;BME280;42155;53.096;23.226;2024-02-26T02:00:24;99181.44;;;9.10;88.85
56241;BME280;42155;53.096;23.226;2024-02-26T02:02:24;99178.91;;;9.08;88.67
56241;BME280;42155;53.096;23.226;2024-02-26T02:04:25;99176.53;;;9.05;88.58
56241;BME280;42155;53.096;23.226;2024-02-26T02:06:26;99182.25;;;9.10;88.81
56241;BME280;42155;53.096;23.226;2024-02-26T02:08:27;99143.03;;;8.85;88.73
56241;BME280;42155;53.096;23.226;2024-02-26T02:10:27;99166.88;;;8.95;88.43
56241;BME280;42155;53.096;23.226;2024-02-26T02:12:28;99163.00;;;8.99;88.65
56241;BME280;42155;53.096;23.226;2024-02-26T02:14:28;99172.22;;;9.04;88.53
56241;BME280;42155;53.096;23.226;2024-02-26T02:16:29;99179.19;;;9.05;88.83
56241;BME280;42155;53.096;23.226;2024-02-26T02:18:29;99172.22;;;9.04;88.72
56241;BME280;42155;53.096;23.226;2024-02-26T02:20:33;99161.63;;;9.04;88.89
56241;BME280;42155;53.096;23.226;2024-02-26T02:22:33;99154.09;;;9.00;88.86
56241;BME280;42155;53.096;23.226;2024-02-26T02:24:34;99163.44;;;9.04;88.92
56241;BME280;42155;53.096;23.226;2024-02-26T02:26:34;99167.06;;;9.03;88.20
56241;BME280;42155;53.096;23.226;2024-02-26T02:28:35;99159.25;;;9.01;88.72
56241;BME280;42155;53.096;23.226;2024-02-26T02:30:35;99148.19;;;8.86;88.32
56241;BME280;42155;53.096;23.226;2024-02-26T02:32:37;99169.97;;;9.00;88.60
56241;BME280;42155;53.096;23.226;2024-02-26T02:34:39;99177.06;;;8.99;88.92
56241;BME280;42155;53.096;23.226;2024-02-26T02:36:53;99167.72;;;8.95;88.81
56241;BME280;42155;53.096;23.226;2024-02-26T02:38:54;99171.09;;;8.97;88.84
56241;BME280;42155;53.096;23.226;2024-02-26T02:40:54;99164.09;;;8.96;88.13
56241;BME280;42155;53.096;23.226;2024-02-26T02:42:55;99157.94;;;8.86;88.23
56241;BME280;42155;53.096;23.226;2024-02-26T02:44:55;99161.56;;;8.85;88.99
56241;BME280;42155;53.096;23.226;2024-02-26T02:46:55;99171.59;;;8.91;88.86
56241;BME280;42155;53.096;23.226;2024-02-26T02:48:56;99169.78;;;8.91;88.75
56241;BME280;42155;53.096;23.226;2024-02-26T02:50:56;99168.25;;;8.89;88.61
56241;BME280;42155;53.096;23.226;2024-02-26T02:52:56;99173.28;;;8.92;88.57
56241;BME280;42155;53.096;23.226;2024-02-26T02:54:57;99164.06;;;8.86;88.53
56241;BME280;42155;53.096;23.226;2024-02-26T02:56:58;99176.19;;;8.89;88.72
56241;BME280;42155;53.096;23.226;2024-02-26T02:58:58;99167.81;;;8.84;88.29
56241;BME280;42155;53.096;23.226;2024-02-26T03:00:58;99170.06;;;8.88;88.91
56241;BME280;42155;53.096;23.226;2024-02-26T03:02:59;99143.38;;;8.71;88.70
56241;BME280;42155;53.096;23.226;2024-02-26T03:04:59;99180.91;;;8.85;88.72
56241;BME280;42155;53.096;23.226;2024-02-26T03:06:59;99174.34;;;8.80;88.82
56241;BME280;42155;53.096;23.226;2024-02-26T03:09:00;99171.94;;;8.77;88.97
56241;BME280;42155;53.096;23.226;2024-02-26T03:11:00;99166.22;;;8.72;88.56
56241;BME280;42155;53.096;23.226;2024-02-26T03:13:00;99176.66;;;8.73;88.40
56241;BME280;42155;53.096;23.226;2024-02-26T03:15:01;99187.13;;;8.75;88.79
56241;BME280;42155;53.096;23.226;2024-02-26T03:17:01;99191.00;;;8.71;88.68
56241;BME280;42155;53.096;23.226;2024-02-26T03:19:02;99173.25;;;8.61;88.45
56241;BME280;42155;53.096;23.226;2024-02-26T03:21:02;99168.31;;;8.47;88.50
56241;BME280;42155;53.096;23.226;2024-02-26T03:23:03;99172.75;;;8.47;88.70
56241;BME280;42155;53.096;23.226;2024-02-26T03:25:04;99152.00;;;8.31;88.93
56241;BME280;42155;53.096;23.226;2024-02-26T03:27:04;99179.56;;;8.49;88.24
56241;BME280;42155;53.096;23.226;2024-02-26T03:29:05;99179.72;;;8.48;88.69
56241;BME280;42155;53.096;23.226;2024-02-26T03:31:05;99187.78;;;8.46;88.16
56241;BME280;42155;53.096;23.226;2024-02-26T03:33:05;99189.13;;;8.40;88.20
56241;BME280;42155;53.096;23.226;2024-02-26T03:35:06;99202.34;;;8.40;88.27
56241;BME280;42155;53.096;23.226;2024-02-26T03:37:06;99186.81;;;8.36;87.97
56241;BME280;42155;53.096;23.226;2024-02-26T03:39:06;99194.91;;;8.34;88.10
56241;BME280;42155;53.096;23.226;2024-02-26T03:41:07;99123.28;;;7.84;88.15
56241;BME280;42155;53.096;23.226;2024-02-26T03:43:07;99204.44;;;8.26;88.40
56241;BME280;42155;53.096;23.226;2024-02-26T03:45:08;99198.69;;;8.21;88.11
56241;BME280;42155;53.096;23.226;2024-02-26T03:47:09;99189.31;;;8.16;88.44
56241;BME280;42155;53.096;23.226;2024-02-26T03:49:09;99203.00;;;8.22;88.65
56241;BME280;42155;53.096;23.226;2024-02-26T03:51:10;99206.63;;;8.21;88.48
56241;BME280;42155;53.096;23.226;2024-02-26T03:53:10;99168.88;;;7.98;88.31
56241;BME280;42155;53.096;23.226;2024-02-26T03:55:10;99208.41;;;8.20;88.37
56241;BME280;42155;53.096;23.226;2024-02-26T03:57:11;99193.91;;;8.14;88.52
56241;BME280;42155;53.096;23.226;2024-02-26T03:59:11;99198.09;;;8.17;88.67
56241;BME280;42155;53.096;23.226;2024-02-26T04:01:11;99195.84;;;8.12;88.40
56241;BME280;42155;53.096;23.226;2024-02-26T04:03:12;99138.81;;;7.78;88.30
56241;BME280;42155;53.096;23.226;2024-02-26T04:05:13;99193.56;;;8.08;88.04
56241;BME280;42155;53.096;23.226;2024-02-26T04:07:13;99173.94;;;7.89;87.96
56241;BME280;42155;53.096;23.226;2024-02-26T04:09:14;99194.91;;;8.02;87.54
56241;BME280;42155;53.096;23.226;2024-02-26T04:11:15;99193.50;;;7.98;87.99
56241;BME280;42155;53.096;23.226;2024-02-26T04:13:16;99196.63;;;7.92;87.87
56241;BME280;42155;53.096;23.226;2024-02-26T04:15:17;99204.56;;;7.92;87.99
56241;BME280;42155;53.096;23.226;2024-02-26T04:17:17;99199.53;;;7.89;87.63
56241;BME280;42155;53.096;23.226;2024-02-26T04:19:18;99198.00;;;7.86;87.36
56241;BME280;42155;53.096;23.226;2024-02-26T04:21:18;99202.44;;;7.86;87.94
56241;BME280;42155;53.096;23.226;2024-02-26T04:23:18;99196.94;;;7.78;87.88
56241;BME280;42155;53.096;23.226;2024-02-26T04:25:19;99208.66;;;7.85;87.82
56241;BME280;42155;53.096;23.226;2024-02-26T04:27:19;99198.94;;;7.85;87.53
56241;BME280;42155;53.096;23.226;2024-02-26T04:29:19;99196.19;;;7.87;87.66
56241;BME280;42155;53.096;23.226;2024-02-26T04:31:20;99203.13;;;7.88;88.08
56241;BME280;42155;53.096;23.226;2024-02-26T04:33:20;99210.34;;;7.86;87.72
56241;BME280;42155;53.096;23.226;2024-02-26T04:35:20;99199.09;;;7.73;87.40
56241;BME280;42155;53.096;23.226;2024-02-26T04:37:21;99207.50;;;7.78;87.24
56241;BME280;42155;53.096;23.226;2024-02-26T04:39:21;99203.41;;;7.74;87.57
56241;BME280;42155;53.096;23.226;2024-02-26T04:41:21;99193.47;;;7.66;87.81
56241;BME280;42155;53.096;23.226;2024-02-26T04:43:22;99191.78;;;7.65;87.61
56241;BME280;42155;53.096;23.226;2024-02-26T04:45:22;99187.84;;;7.59;87.84
56241;BME280;42155;53.096;23.226;2024-02-26T04:47:22;99188.56;;;7.61;88.02
56241;BME280;42155;53.096;23.226;2024-02-26T04:49:23;99194.56;;;7.63;87.68
56241;BME280;42155;53.096;23.226;2024-02-26T04:51:23;99197.22;;;7.52;87.32
56241;BME280;42155;53.096;23.226;2024-02-26T04:53:23;99192.19;;;7.49;87.51
56241;BME280;42155;53.096;23.226;2024-02-26T04:55:24;99206.69;;;7.44;87.46
56241;BME280;42155;53.096;23.226;2024-02-26T04:57:24;99197.97;;;7.32;87.18
56241;BME280;42155;53.096;23.226;2024-02-26T04:59:24;99165.84;;;7.04;87.42
56241;BME280;42155;53.096;23.226;2024-02-26T05:01:25;99211.31;;;7.30;87.03
56241;BME280;42155;53.096;23.226;2024-02-26T05:03:25;99217.50;;;7.29;87.38
56241;BME280;42155;53.096;23.226;2024-02-26T05:05:25;99206.63;;;7.23;87.24
56241;BME280;42155;53.096;23.226;2024-02-26T05:07:26;99213.34;;;7.27;87.17
56241;BME280;42155;53.096;23.226;2024-02-26T05:09:26;99206.13;;;7.29;87.44
56241;BME280;42155;53.096;23.226;2024-02-26T05:11:26;99198.84;;;7.21;86.76
56241;BME280;42155;53.096;23.226;2024-02-26T05:13:27;99203.00;;;7.24;86.96
56241;BME280;42155;53.096;23.226;2024-02-26T05:15:27;99212.50;;;7.26;87.20
56241;BME280;42155;53.096;23.226;2024-02-26T05:17:27;99199.91;;;7.19;87.38
56241;BME280;42155;53.096;23.226;2024-02-26T05:19:28;99210.09;;;7.23;87.35
56241;BME280;42155;53.096;23.226;2024-02-26T05:21:28;99222.31;;;7.24;86.64
56241;BME280;42155;53.096;23.226;2024-02-26T05:23:28;99222.94;;;7.17;86.79
56241;BME280;42155;53.096;23.226;2024-02-26T05:25:29;99223.41;;;7.10;86.81
56241;BME280;42155;53.096;23.226;2024-02-26T05:27:30;99232.50;;;7.06;86.84
56241;BME280;42155;53.096;23.226;2024-02-26T05:29:30;99218.59;;;7.04;86.74
56241;BME280;42155;53.096;23.226;2024-02-26T05:31:30;99220.28;;;7.05;86.66
56241;BME280;42155;53.096;23.226;2024-02-26T05:33:30;99208.53;;;6.98;86.71
56241;BME280;42155;53.096;23.226;2024-02-26T05:35:31;99228.94;;;7.07;86.86
56241;BME280;42155;53.096;23.226;2024-02-26T05:37:31;99222.22;;;7.03;86.44
56241;BME280;42155;53.096;23.226;2024-02-26T05:39:31;99223.88;;;7.04;86.63
56241;BME280;42155;53.096;23.226;2024-02-26T05:41:32;99233.13;;;7.10;86.71
56241;BME280;42155;53.096;23.226;2024-02-26T05:43:32;99239.00;;;7.13;86.54
56241;BME280;42155;53.096;23.226;2024-02-26T05:45:32;99242.25;;;7.17;86.84
56241;BME280;42155;53.096;23.226;2024-02-26T05:47:33;99237.53;;;7.21;87.03
56241;BME280;42155;53.096;23.226;2024-02-26T05:49:33;99203.97;;;7.00;87.03
56241;BME280;42155;53.096;23.226;2024-02-26T05:51:34;99242.09;;;7.30;87.12
56241;BME280;42155;53.096;23.226;2024-02-26T05:53:34;99243.44;;;7.35;86.83
56241;BME280;42155;53.096;23.226;2024-02-26T05:55:34;99250.28;;;7.38;87.19
56241;BME280;42155;53.096;23.226;2024-02-26T05:57:35;99241.50;;;7.37;86.70
56241;BME280;42155;53.096;23.226;2024-02-26T05:59:36;99244.53;;;7.44;86.60
56241;BME280;42155;53.096;23.226;2024-02-26T06:01:36;99251.47;;;7.45;86.46
56241;BME280;42155;53.096;23.226;2024-02-26T06:03:36;99241.63;;;7.47;86.81
56241;BME280;42155;53.096;23.226;2024-02-26T06:05:37;99242.59;;;7.46;87.22
56241;BME280;42155;53.096;23.226;2024-02-26T06:07:37;99247.38;;;7.52;87.22
56241;BME280;42155;53.096;23.226;2024-02-26T06:09:37;99238.75;;;7.50;86.68
56241;BME280;42155;53.096;23.226;2024-02-26T06:11:38;99255.03;;;7.66;87.03
56241;BME280;42155;53.096;23.226;2024-02-26T06:13:38;99246.19;;;7.68;86.65
56241;BME280;42155;53.096;23.226;2024-02-26T06:15:39;99258.03;;;7.73;87.32
56241;BME280;42155;53.096;23.226;2024-02-26T06:17:39;99254.19;;;7.77;86.78
56241;BME280;42155;53.096;23.226;2024-02-26T06:19:39;99255.03;;;7.78;86.75
56241;BME280;42155;53.096;23.226;2024-02-26T06:21:40;99253.69;;;7.83;87.00
56241;BME280;42155;53.096;23.226;2024-02-26T06:23:40;99234.16;;;7.75;86.79
56241;BME280;42155;53.096;23.226;2024-02-26T06:25:40;99256.56;;;7.91;86.70
56241;BME280;42155;53.096;23.226;2024-02-26T06:27:41;99264.34;;;7.93;86.86
56241;BME280;42155;53.096;23.226;2024-02-26T06:29:41;99264.97;;;7.97;87.59
56241;BME280;42155;53.096;23.226;2024-02-26T06:31:41;99233.78;;;7.79;87.43
56241;BME280;42155;53.096;23.226;2024-02-26T06:33:42;99266.13;;;8.04;87.79
56241;BME280;42155;53.096;23.226;2024-02-26T06:35:42;99266.47;;;8.10;87.36
56241;BME280;42155;53.096;23.226;2024-02-26T06:37:42;99227.63;;;7.90;87.49
56241;BME280;42155;53.096;23.226;2024-02-26T06:39:42;99265.72;;;8.20;87.90
56241;BME280;42155;53.096;23.226;2024-02-26T06:41:43;99264.25;;;8.27;88.26
56241;BME280;42155;53.096;23.226;2024-02-26T06:43:43;99270.72;;;8.34;88.28
56241;BME280;42155;53.096;23.226;2024-02-26T06:45:44;99275.53;;;8.40;88.23
56241;BME280;42155;53.096;23.226;2024-02-26T06:47:44;99268.78;;;8.47;88.29
56241;BME280;42155;53.096;23.226;2024-02-26T06:49:44;99262.97;;;8.53;88.11
56241;BME280;42155;53.096;23.226;2024-02-26T06:51:45;99265.09;;;8.59;88.56
56241;BME280;42155;53.096;23.226;2024-02-26T06:53:45;99260.84;;;8.68;88.75
56241;BME280;42155;53.096;23.226;2024-02-26T06:55:45;99265.38;;;8.77;88.46
56241;BME280;42155;53.096;23.226;2024-02-26T06:57:46;99260.91;;;8.78;88.63
56241;BME280;42155;53.096;23.226;2024-02-26T06:59:46;99268.81;;;8.89;88.77
56241;BME280;42155;53.096;23.226;2024-02-26T07:01:47;99268.88;;;8.99;89.05
56241;BME280;42155;53.096;23.226;2024-02-26T07:03:47;99256.47;;;8.99;88.64
56241;BME280;42155;53.096;23.226;2024-02-26T07:05:47;99263.38;;;9.11;88.48
56241;BME280;42155;53.096;23.226;2024-02-26T07:07:48;99258.06;;;9.11;88.59
56241;BME280;42155;53.096;23.226;2024-02-26T07:09:48;99280.72;;;9.25;88.89
56241;BME280;42155;53.096;23.226;2024-02-26T07:11:48;99258.22;;;9.19;88.67
56241;BME280;42155;53.096;23.226;2024-02-26T07:13:49;99271.25;;;9.32;88.66
56241;BME280;42155;53.096;23.226;2024-02-26T07:15:49;99256.88;;;9.25;88.38
56241;BME280;42155;53.096;23.226;2024-02-26T07:17:49;99276.88;;;9.39;88.61
56241;BME280;42155;53.096;23.226;2024-02-26T07:19:50;99279.25;;;9.42;88.92
56241;BME280;42155;53.096;23.226;2024-02-26T07:21:50;99283.72;;;9.41;88.56
56241;BME280;42155;53.096;23.226;2024-02-26T07:23:50;99286.09;;;9.44;88.78
56241;BME280;42155;53.096;23.226;2024-02-26T07:25:51;99273.50;;;9.37;88.78
56241;BME280;42155;53.096;23.226;2024-02-26T07:27:51;99289.75;;;9.53;88.28
56241;BME280;42155;53.096;23.226;2024-02-26T07:29:51;99300.22;;;9.55;88.68
56241;BME280;42155;53.096;23.226;2024-02-26T07:31:51;99266.28;;;9.39;88.65
56241;BME280;42155;53.096;23.226;2024-02-26T07:33:52;99290.28;;;9.47;88.41
56241;BME280;42155;53.096;23.226;2024-02-26T07:35:52;99284.28;;;9.45;88.48
56241;BME280;42155;53.096;23.226;2024-02-26T07:37:53;99290.56;;;9.44;88.90
56241;BME280;42155;53.096;23.226;2024-02-26T07:39:53;99300.38;;;9.53;88.90
56241;BME280;42155;53.096;23.226;2024-02-26T07:41:53;99284.72;;;9.50;88.84
56241;BME280;42155;53.096;23.226;2024-02-26T07:43:54;99302.22;;;9.62;88.69
56241;BME280;42155;53.096;23.226;2024-02-26T07:45:54;99292.59;;;9.61;88.37
56241;BME280;42155;53.096;23.226;2024-02-26T07:47:54;99301.81;;;9.67;88.68
56241;BME280;42155;53.096;23.226;2024-02-26T07:49:55;99241.31;;;9.32;88.37
56241;BME280;42155;53.096;23.226;2024-02-26T07:51:55;99309.91;;;9.75;88.48
56241;BME280;42155;53.096;23.226;2024-02-26T07:53:55;99314.13;;;9.78;88.24
56241;BME280;42155;53.096;23.226;2024-02-26T07:55:56;99313.03;;;9.80;87.96
56241;BME280;42155;53.096;23.226;2024-02-26T07:57:56;99303.34;;;9.69;87.95
56241;BME280;42155;53.096;23.226;2024-02-26T07:59:57;99317.44;;;9.80;88.03
56241;BME280;42155;53.096;23.226;2024-02-26T08:01:57;99322.91;;;9.78;87.78
56241;BME280;42155;53.096;23.226;2024-02-26T08:03:57;99315.78;;;9.79;87.64
56241;BME280;42155;53.096;23.226;2024-02-26T08:05:58;99324.31;;;9.82;87.92
56241;BME280;42155;53.096;23.226;2024-02-26T08:07:58;99318.03;;;9.83;87.93
56241;BME280;42155;53.096;23.226;2024-02-26T08:09:58;99319.69;;;9.84;87.60
56241;BME280;42155;53.096;23.226;2024-02-26T08:11:59;99321.84;;;9.90;87.24
56241;BME280;42155;53.096;23.226;2024-02-26T08:13:59;99311.34;;;9.89;87.65
56241;BME280;42155;53.096;23.226;2024-02-26T08:16:00;99321.44;;;9.95;87.19
56241;BME280;42155;53.096;23.226;2024-02-26T08:18:03;99314.31;;;9.95;87.30
56241;BME280;42155;53.096;23.226;2024-02-26T08:20:04;99326.19;;;10.01;86.89
56241;BME280;42155;53.096;23.226;2024-02-26T08:22:05;99328.56;;;10.04;86.72
56241;BME280;42155;53.096;23.226;2024-02-26T08:24:05;99316.69;;;9.99;86.62
56241;BME280;42155;53.096;23.226;2024-02-26T08:26:06;99325.63;;;10.07;86.82
56241;BME280;42155;53.096;23.226;2024-02-26T08:28:06;99318.66;;;10.06;86.95
56241;BME280;42155;53.096;23.226;2024-02-26T08:30:07;99334.03;;;10.12;86.64
56241;BME280;42155;53.096;23.226;2024-02-26T08:32:07;99333.75;;;10.15;86.46
56241;BME280;42155;53.096;23.226;2024-02-26T08:34:07;99331.94;;;10.16;86.15
56241;BME280;42155;53.096;23.226;2024-02-26T08:36:08;99335.41;;;10.16;86.45
56241;BME280;42155;53.096;23.226;2024-02-26T08:38:08;99325.94;;;10.14;85.99
56241;BME280;42155;53.096;23.226;2024-02-26T08:40:09;99325.50;;;10.09;86.10
56241;BME280;42155;53.096;23.226;2024-02-26T08:42:09;99333.47;;;10.18;85.76
56241;BME280;42155;53.096;23.226;2024-02-26T08:44:10;99335.16;;;10.19;85.84
56241;BME280;42155;53.096;23.226;2024-02-26T08:46:12;99328.03;;;10.20;85.50
56241;BME280;42155;53.096;23.226;2024-02-26T08:48:13;99345.56;;;10.32;85.73
56241;BME280;42155;53.096;23.226;2024-02-26T08:50:14;99339.69;;;10.38;85.49
56241;BME280;42155;53.096;23.226;2024-02-26T08:52:14;99338.28;;;10.44;85.05
56241;BME280;42155;53.096;23.226;2024-02-26T08:54:15;99321.84;;;10.40;85.22
56241;BME280;42155;53.096;23.226;2024-02-26T08:56:15;99345.56;;;10.61;84.79
56241;BME280;42155;53.096;23.226;2024-02-26T08:58:15;99348.13;;;10.73;84.42
56241;BME280;42155;53.096;23.226;2024-02-26T09:00:16;99350.88;;;10.81;84.23
56241;BME280;42155;53.096;23.226;2024-02-26T09:02:16;99340.00;;;10.84;84.07
56241;BME280;42155;53.096;23.226;2024-02-26T09:04:17;99342.91;;;10.90;84.09
56241;BME280;42155;53.096;23.226;2024-02-26T09:06:17;99346.44;;;10.91;83.74
56241;BME280;42155;53.096;23.226;2024-02-26T09:08:17;99354.50;;;10.99;83.47
56241;BME280;42155;53.096;23.226;2024-02-26T09:10:18;99345.59;;;11.00;83.09
56241;BME280;42155;53.096;23.226;2024-02-26T09:12:18;99350.91;;;11.00;82.78
56241;BME280;42155;53.096;23.226;2024-02-26T09:14:18;99335.25;;;10.97;82.64
56241;BME280;42155;53.096;23.226;2024-02-26T09:16:19;99347.09;;;11.03;82.88
56241;BME280;42155;53.096;23.226;2024-02-26T09:18:19;99332.75;;;10.95;82.62
56241;BME280;42155;53.096;23.226;2024-02-26T09:20:19;99352.81;;;11.17;82.38
56241;BME280;42155;53.096;23.226;2024-02-26T09:22:20;99359.81;;;11.28;82.18
56241;BME280;42155;53.096;23.226;2024-02-26T09:24:20;99349.16;;;11.38;81.79
56241;BME280;42155;53.096;23.226;2024-02-26T09:26:20;99351.91;;;11.56;81.17
56241;BME280;42155;53.096;23.226;2024-02-26T09:28:21;99350.19;;;11.64;80.56
56241;BME280;42155;53.096;23.226;2024-02-26T09:30:21;99356.84;;;11.78;79.64
56241;BME280;42155;53.096;23.226;2024-02-26T09:32:22;99362.47;;;11.85;79.38
56241;BME280;42155;53.096;23.226;2024-02-26T09:34:22;99353.22;;;11.89;78.86
56241;BME280;42155;53.096;23.226;2024-02-26T09:36:22;99335.59;;;11.88;78.82
56241;BME280;42155;53.096;23.226;2024-02-26T09:38:23;99353.13;;;12.08;77.91
56241;BME280;42155;53.096;23.226;2024-02-26T09:40:23;99366.53;;;12.16;77.31
56241;BME280;42155;53.096;23.226;2024-02-26T09:42:26;99360.81;;;12.11;76.98
56241;BME280;42155;53.096;23.226;2024-02-26T09:44:27;99366.13;;;12.11;77.04
56241;BME280;42155;53.096;23.226;2024-02-26T09:46:28;99368.63;;;12.13;76.84
56241;BME280;42155;53.096;23.226;2024-02-26T09:48:31;99333.44;;;11.91;76.58
56241;BME280;42155;53.096;23.226;2024-02-26T09:50:31;99345.91;;;11.91;76.65
56241;BME280;42155;53.096;23.226;2024-02-26T09:52:33;99375.56;;;11.96;76.94
56241;BME280;42155;53.096;23.226;2024-02-26T09:54:35;99376.00;;;11.91;77.02
56241;BME280;42155;53.096;23.226;2024-02-26T09:56:39;99367.19;;;11.91;77.23
56241;BME280;42155;53.096;23.226;2024-02-26T09:58:41;99368.56;;;11.95;76.97
56241;BME280;42155;53.096;23.226;2024-02-26T10:00:42;99376.28;;;11.98;76.97
56241;BME280;42155;53.096;23.226;2024-02-26T10:02:47;99376.78;;;12.02;76.82
56241;BME280;42155;53.096;23.226;2024-02-26T10:04:48;99378.31;;;12.04;76.47
56241;BME280;42155;53.096;23.226;2024-02-26T10:06:49;99377.72;;;12.10;76.37
56241;BME280;42155;53.096;23.226;2024-02-26T10:08:51;99372.97;;;12.14;76.52
56241;BME280;42155;53.096;23.226;2024-02-26T10:10:53;99373.50;;;12.17;76.31
56241;BME280;42155;53.096;23.226;2024-02-26T10:12:54;99379.13;;;12.14;75.96
56241;BME280;42155;53.096;23.226;2024-02-26T10:14:55;99369.84;;;12.18;75.76
56241;BME280;42155;53.096;23.226;2024-02-26T10:16:55;99371.25;;;12.22;75.90
56241;BME280;42155;53.096;23.226;2024-02-26T10:18:56;99362.59;;;12.20;75.80
56241;BME280;42155;53.096;23.226;2024-02-26T10:21:03;99360.47;;;12.42;75.28
56241;BME280;42155;53.096;23.226;2024-02-26T10:23:03;99370.69;;;12.64;75.02
56241;BME280;42155;53.096;23.226;2024-02-26T10:25:04;99354.44;;;12.67;74.39
56241;BME280;42155;53.096;23.226;2024-02-26T10:27:05;99335.41;;;12.62;74.04
56241;BME280;42155;53.096;23.226;2024-02-26T10:29:05;99379.91;;;12.88;73.75
56241;BME280;42155;53.096;23.226;2024-02-26T10:31:06;99375.41;;;12.88;73.85
56241;BME280;42155;53.096;23.226;2024-02-26T10:33:07;99378.63;;;12.92;73.64
56241;BME280;42155;53.096;23.226;2024-02-26T10:35:08;99378.63;;;12.92;73.44
56241;BME280;42155;53.096;23.226;2024-02-26T10:37:09;99370.25;;;12.87;73.42